createdAt,value
2023-05-20T00:00:15.815Z,4.87
2023-05-20T00:02:44.151Z,4.03
2023-05-20T00:05:14.230Z,5.43
2023-05-20T00:07:42.496Z,4.77
2023-05-20T00:10:12.218Z,5.63
2023-05-20T00:12:40.839Z,4.63
2023-05-20T00:15:13.204Z,3.63
2023-05-20T00:17:41.614Z,4.77
2023-05-20T00:20:10.747Z,3.80
2023-05-20T00:22:40.333Z,6.10
2023-05-20T00:25:09.748Z,3.70
2023-05-20T00:27:37.981Z,4.67
2023-05-20T00:30:07.975Z,4.63
2023-05-20T00:32:36.365Z,4.60
2023-05-20T00:35:05.589Z,4.47
2023-05-20T00:37:33.851Z,3.87
2023-05-20T00:40:09.865Z,6.07
2023-05-20T00:42:38.089Z,3.77
2023-05-20T00:45:07.539Z,5.80
2023-05-20T00:47:37.631Z,5.67
2023-05-20T00:50:07.313Z,5.13
2023-05-20T00:52:37.152Z,3.93
2023-05-20T00:55:07.548Z,6.13
2023-05-20T00:57:35.970Z,4.07
2023-05-20T01:00:09.224Z,5.32
2023-05-20T01:02:37.622Z,5.00
2023-05-20T01:05:06.996Z,4.80
2023-05-20T01:07:35.815Z,5.87
2023-05-20T01:10:04.697Z,4.60
2023-05-20T01:12:39.240Z,4.80
2023-05-20T01:15:11.343Z,5.27
2023-05-20T01:17:45.073Z,4.83
2023-05-20T01:20:15.820Z,5.43
2023-05-20T01:22:50.988Z,4.50
2023-05-20T01:25:19.340Z,5.97
2023-05-20T01:27:48.959Z,4.67
2023-05-20T01:30:18.062Z,6.13
2023-05-20T01:32:52.204Z,3.77
2023-05-20T01:35:21.780Z,5.90
2023-05-20T01:37:54.577Z,5.30
2023-05-20T01:40:24.836Z,4.27
2023-05-20T01:42:55.219Z,4.07
2023-05-20T01:45:25.662Z,6.13
2023-05-20T01:47:54.499Z,5.47
2023-05-20T01:50:23.032Z,4.07
2023-05-20T01:52:52.615Z,4.27
2023-05-20T01:55:21.072Z,4.67
2023-05-20T01:57:49.366Z,5.57
2023-05-20T02:00:18.062Z,5.43
2023-05-20T02:02:46.532Z,5.93
2023-05-20T02:05:15.083Z,7.77
2023-05-20T02:07:48.150Z,6.20
2023-05-20T02:10:18.004Z,6.37
2023-05-20T02:12:49.309Z,4.20
2023-05-20T02:15:17.775Z,5.37
2023-05-20T02:17:47.377Z,4.47
2023-05-20T02:20:16.566Z,6.27
2023-05-20T02:22:44.835Z,7.87
2023-05-20T02:25:13.612Z,4.73
2023-05-20T02:27:43.277Z,4.90
2023-05-20T02:30:12.167Z,8.37
2023-05-20T02:32:40.483Z,5.20
2023-05-20T02:35:09.439Z,5.93
2023-05-20T02:37:39.018Z,6.70
2023-05-20T02:40:10.364Z,6.10
2023-05-20T02:42:44.778Z,5.03
2023-05-20T02:45:13.118Z,4.60
2023-05-20T02:47:41.433Z,4.33
2023-05-20T02:50:10.244Z,4.63
2023-05-20T02:52:40.020Z,4.27
2023-05-20T02:55:09.609Z,4.97
2023-05-20T02:57:39.137Z,5.87
2023-05-20T03:00:12.127Z,5.50
2023-05-20T03:02:40.670Z,5.27
2023-05-20T03:05:10.917Z,6.57
2023-05-20T03:07:39.564Z,5.83
2023-05-20T03:10:10.709Z,7.23
2023-05-20T03:12:40.661Z,5.63
2023-05-20T03:15:12.740Z,4.87
2023-05-20T03:17:41.411Z,5.37
2023-05-20T03:20:12.824Z,5.83
2023-05-20T03:22:42.379Z,6.10
2023-05-20T03:25:11.737Z,4.17
2023-05-20T03:27:40.320Z,7.07
2023-05-20T03:30:12.654Z,9.10
2023-05-20T03:32:41.457Z,6.10
2023-05-20T03:35:10.360Z,7.30
2023-05-20T03:37:39.838Z,7.87
2023-05-20T03:40:10.464Z,6.27
2023-05-20T03:42:40.127Z,4.50
2023-05-20T03:45:11.961Z,6.80
2023-05-20T03:47:48.888Z,5.67
2023-05-20T03:50:19.272Z,6.73
2023-05-20T03:52:48.154Z,6.67
2023-05-20T03:55:20.495Z,6.13
2023-05-20T03:57:49.164Z,7.90
2023-05-20T04:00:19.172Z,5.53
2023-05-20T04:02:47.397Z,6.10
2023-05-20T04:05:44.690Z,6.27
2023-05-20T04:08:19.061Z,6.00
2023-05-20T04:10:48.011Z,6.43
2023-05-20T04:13:16.444Z,7.87
2023-05-20T04:15:51.674Z,7.87
2023-05-20T04:18:20.058Z,8.47
2023-05-20T04:20:48.889Z,5.80
2023-05-20T04:23:17.429Z,7.90
2023-05-20T04:25:46.126Z,7.13
2023-05-20T04:28:16.464Z,6.33
2023-05-20T04:30:45.236Z,7.67
2023-05-20T04:33:16.165Z,5.63
2023-05-20T04:35:45.010Z,6.53
2023-05-20T04:38:13.331Z,8.57
2023-05-20T04:40:41.860Z,7.77
2023-05-20T04:43:11.115Z,8.40
2023-05-20T04:45:40.387Z,7.90
2023-05-20T04:48:09.645Z,6.77
2023-05-20T04:50:40.521Z,6.43
2023-05-20T04:53:08.964Z,7.57
2023-05-20T04:55:39.093Z,6.53
2023-05-20T04:58:08.271Z,7.77
2023-05-20T05:00:36.787Z,6.37
2023-05-20T05:03:05.198Z,6.60
2023-05-20T05:05:34.119Z,6.97
2023-05-20T05:08:04.082Z,8.53
2023-05-20T05:10:33.294Z,6.67
2023-05-20T05:13:01.815Z,9.10
2023-05-20T05:15:30.689Z,8.93
2023-05-20T05:17:59.268Z,7.63
2023-05-20T05:20:27.590Z,9.93
2023-05-20T05:22:56.149Z,7.87
2023-05-20T05:25:26.151Z,6.87
2023-05-20T05:27:55.362Z,8.73
2023-05-20T05:30:24.894Z,10.70
2023-05-20T05:32:53.401Z,6.97
2023-05-20T05:35:21.961Z,6.77
2023-05-20T05:37:50.458Z,8.20
2023-05-20T05:40:19.040Z,6.63
2023-05-20T05:42:49.824Z,8.27
2023-05-20T05:45:18.328Z,7.63
2023-05-20T05:47:46.613Z,7.97
2023-05-20T05:50:15.984Z,7.50
2023-05-20T05:52:44.320Z,7.50
2023-05-20T05:55:13.795Z,9.02
2023-05-20T05:57:43.142Z,8.00
2023-05-20T06:00:18.224Z,8.30
2023-05-20T06:02:47.228Z,6.60
2023-05-20T06:05:31.400Z,7.37
2023-05-20T06:08:00.423Z,8.13
2023-05-20T06:10:28.794Z,7.47
2023-05-20T06:12:57.316Z,8.50
2023-05-20T06:15:27.803Z,6.75
2023-05-20T06:17:56.212Z,7.20
2023-05-20T06:20:24.883Z,7.25
2023-05-20T06:22:53.592Z,6.45
2023-05-20T06:25:23.133Z,7.45
2023-05-20T06:27:52.035Z,9.88
2023-05-20T06:30:21.509Z,7.13
2023-05-20T06:32:51.327Z,7.18
2023-05-20T06:35:20.366Z,7.63
2023-05-20T06:37:48.759Z,7.10
2023-05-20T06:40:18.201Z,9.48
2023-05-20T06:42:46.544Z,7.03
2023-05-20T06:45:15.187Z,9.48
2023-05-20T06:47:48.094Z,7.32
2023-05-20T06:50:18.098Z,6.82
2023-05-20T06:52:46.405Z,7.18
2023-05-20T06:55:15.918Z,7.95
2023-05-20T06:57:44.939Z,9.48
2023-05-20T07:00:15.227Z,9.02
2023-05-20T07:02:44.493Z,8.60
2023-05-20T07:05:14.435Z,8.25
2023-05-20T07:07:44.084Z,6.82
2023-05-20T07:10:12.758Z,7.80
2023-05-20T07:12:41.020Z,9.88
2023-05-20T07:15:10.672Z,6.53
2023-05-20T07:17:38.974Z,8.32
2023-05-20T07:20:09.171Z,10.65
2023-05-20T07:22:37.840Z,8.40
2023-05-20T07:25:14.434Z,8.00
2023-05-20T07:27:42.722Z,6.57
2023-05-20T07:30:11.738Z,6.97
2023-05-20T07:32:42.384Z,7.90
2023-05-20T07:35:10.880Z,7.25
2023-05-20T07:37:39.269Z,7.90
2023-05-20T07:40:10.008Z,10.68
2023-05-20T07:42:41.147Z,8.25
2023-05-20T07:45:11.813Z,10.07
2023-05-20T07:47:41.890Z,6.03
2023-05-20T07:50:11.075Z,7.18
2023-05-20T07:55:11.636Z,6.68
2023-05-20T07:57:43.588Z,7.28
2023-05-20T08:00:14.730Z,8.13
2023-05-20T08:02:46.421Z,7.28
2023-05-20T08:05:22.703Z,7.18
2023-05-20T08:07:50.995Z,6.80
2023-05-20T08:10:20.978Z,9.20
2023-05-20T08:12:50.814Z,6.45
2023-05-20T08:15:19.501Z,7.55
2023-05-20T08:17:48.929Z,7.40
2023-05-20T08:20:17.169Z,6.80
2023-05-20T08:22:45.576Z,6.55
2023-05-20T08:25:13.937Z,6.10
2023-05-20T08:27:42.251Z,7.63
2023-05-20T08:30:13.028Z,7.07
2023-05-20T08:32:41.324Z,7.30
2023-05-20T08:35:10.488Z,6.78
2023-05-20T08:37:38.831Z,5.97
2023-05-20T08:40:09.852Z,7.00
2023-05-20T08:42:42.365Z,12.88
2023-05-20T08:45:13.871Z,8.43
2023-05-20T08:47:44.169Z,5.97
2023-05-20T08:50:15.079Z,7.72
2023-05-20T08:52:45.986Z,6.22
2023-05-20T08:55:26.997Z,9.13
2023-05-20T08:57:56.088Z,5.82
2023-05-20T09:00:29.026Z,7.15
2023-05-20T09:03:00.749Z,6.75
2023-05-20T09:05:29.956Z,7.20
2023-05-20T09:08:07.858Z,5.75
2023-05-20T09:10:37.351Z,6.30
2023-05-20T09:13:06.789Z,8.60
2023-05-20T09:15:37.835Z,6.50
2023-05-20T09:18:09.216Z,6.05
2023-05-20T09:20:41.139Z,6.97
2023-05-20T09:23:11.282Z,9.10
2023-05-20T09:25:39.907Z,7.38
2023-05-20T09:28:09.372Z,6.55
2023-05-20T09:30:38.975Z,6.90
2023-05-20T09:33:09.343Z,8.30
2023-05-20T09:35:38.612Z,6.40
2023-05-20T09:38:08.539Z,9.40
2023-05-20T09:40:40.661Z,6.07
2023-05-20T09:43:11.397Z,10.20
2023-05-20T09:45:41.560Z,6.18
2023-05-20T09:48:13.101Z,7.43
2023-05-20T09:50:42.974Z,6.68
2023-05-20T09:53:13.233Z,6.20
2023-05-20T09:55:41.949Z,6.70
2023-05-20T09:58:16.239Z,6.93
2023-05-20T10:00:46.456Z,6.15
2023-05-20T10:03:15.026Z,6.40
2023-05-20T10:05:50.312Z,5.75
2023-05-20T10:08:44.181Z,6.35
2023-05-20T10:11:28.215Z,6.22
2023-05-20T10:14:20.227Z,6.57
2023-05-20T10:16:55.799Z,5.18
2023-05-20T10:19:30.978Z,6.15
2023-05-20T10:22:02.229Z,5.40
2023-05-20T10:24:35.069Z,5.03
2023-05-20T10:27:05.810Z,6.28
2023-05-20T10:29:45.544Z,5.00
2023-05-20T10:32:26.989Z,9.02
2023-05-20T10:35:01.963Z,5.05
2023-05-20T10:37:33.095Z,5.65
2023-05-20T10:40:09.384Z,4.47
2023-05-20T10:42:38.267Z,4.38
2023-05-20T10:45:08.603Z,5.97
2023-05-20T10:47:38.857Z,5.65
2023-05-20T10:50:08.436Z,6.75
2023-05-20T10:52:39.590Z,6.85
2023-05-20T10:55:09.483Z,5.28
2023-05-20T10:57:37.805Z,6.38
2023-05-20T11:00:10.791Z,6.05
2023-05-20T11:02:42.054Z,5.47
2023-05-20T11:05:14.617Z,7.03
2023-05-20T11:07:42.913Z,5.45
2023-05-20T11:10:12.128Z,5.78
2023-05-20T11:12:41.464Z,5.28
2023-05-20T11:15:13.755Z,4.90
2023-05-20T11:17:55.528Z,5.57
2023-05-20T11:20:24.920Z,5.82
2023-05-20T11:22:53.636Z,5.22
2023-05-20T11:25:23.302Z,4.72
2023-05-20T11:27:52.702Z,7.72
2023-05-20T11:30:21.570Z,4.25
2023-05-20T11:33:00.876Z,6.25
2023-05-20T11:35:32.273Z,4.10
2023-05-20T11:38:06.287Z,6.00
2023-05-20T11:40:46.297Z,4.75
2023-05-20T11:43:17.829Z,4.80
2023-05-20T11:45:49.253Z,5.53
2023-05-20T11:48:20.383Z,6.63
2023-05-20T11:50:49.644Z,4.10
2023-05-20T11:53:19.951Z,4.70
2023-05-20T11:55:52.149Z,5.53
2023-05-20T11:58:21.930Z,4.35
2023-05-20T12:00:55.148Z,4.35
2023-05-20T12:03:31.983Z,5.60
2023-05-20T12:06:04.493Z,5.60
2023-05-20T12:08:33.121Z,6.65
2023-05-20T12:11:01.348Z,4.90
2023-05-20T12:13:29.619Z,10.43
2023-05-20T12:15:57.953Z,4.95
2023-05-20T12:18:26.211Z,4.35
2023-05-20T12:20:55.843Z,4.18
2023-05-20T12:23:24.101Z,4.68
2023-05-20T12:25:52.399Z,4.18
2023-05-20T12:28:21.133Z,5.28
2023-05-20T12:30:49.408Z,9.23
2023-05-20T12:33:17.672Z,3.83
2023-05-20T12:35:46.798Z,5.80
2023-05-20T12:38:16.505Z,4.88
2023-05-20T12:40:44.774Z,6.45
2023-05-20T12:43:13.183Z,5.72
2023-05-20T12:45:41.470Z,4.50
2023-05-20T12:48:09.816Z,3.78
2023-05-20T12:50:38.266Z,4.72
2023-05-20T12:53:06.570Z,4.07
2023-05-20T12:55:36.264Z,4.25
2023-05-20T12:58:04.569Z,4.22
2023-05-20T13:00:32.940Z,7.57
2023-05-20T13:03:01.694Z,4.18
2023-05-20T13:05:30.090Z,4.75
2023-05-20T13:07:58.325Z,6.70
2023-05-20T13:10:26.949Z,3.85
2023-05-20T13:12:58.128Z,6.03
2023-05-20T13:15:26.425Z,4.65
2023-05-20T13:17:55.293Z,5.00
2023-05-20T13:20:23.722Z,4.10
2023-05-20T13:22:52.463Z,4.80
2023-05-20T13:25:20.813Z,5.93
2023-05-20T13:27:49.046Z,4.70
2023-05-20T13:30:18.846Z,6.05
2023-05-20T13:32:47.101Z,5.47
2023-05-20T13:35:16.853Z,4.88
2023-05-20T13:37:45.260Z,5.22
2023-05-20T13:40:14.528Z,3.88
2023-05-20T13:42:42.809Z,5.47
2023-05-20T13:45:12.338Z,7.70
2023-05-20T13:47:42.021Z,4.75
2023-05-20T13:50:12.024Z,5.05
2023-05-20T13:52:40.801Z,4.50
2023-05-20T13:55:09.918Z,4.32
2023-05-20T13:57:38.195Z,5.13
2023-05-20T14:00:08.477Z,5.43
2023-05-20T14:02:37.136Z,4.20
2023-05-20T14:05:08.605Z,5.90
2023-05-20T14:07:37.123Z,5.78
2023-05-20T14:10:06.904Z,4.47
2023-05-20T14:12:35.167Z,4.20
2023-05-20T14:15:03.497Z,3.60
2023-05-20T14:17:31.766Z,7.70
2023-05-20T14:20:00.750Z,6.00
2023-05-20T14:22:30.351Z,4.68
2023-05-20T14:24:59.188Z,5.80
2023-05-20T14:27:27.486Z,6.75
2023-05-20T14:29:55.803Z,8.27
2023-05-20T14:32:24.241Z,9.32
2023-05-20T14:34:53.806Z,6.40
2023-05-20T14:37:23.011Z,5.22
2023-05-20T14:39:52.548Z,5.25
2023-05-20T14:42:20.842Z,7.55
2023-05-20T14:44:49.773Z,5.07
2023-05-20T14:47:21.459Z,5.45
2023-05-20T14:49:50.550Z,5.13
2023-05-20T14:52:19.088Z,7.07
2023-05-20T14:54:47.861Z,6.82
2023-05-20T14:57:17.684Z,5.75
2023-05-20T14:59:46.199Z,5.53
2023-05-20T15:02:15.854Z,6.55
2023-05-20T15:04:46.303Z,7.03
2023-05-20T15:07:14.947Z,7.53
2023-05-20T15:09:43.753Z,7.03
2023-05-20T15:12:12.542Z,6.75
2023-05-20T15:14:42.290Z,5.75
2023-05-20T15:17:10.672Z,7.10
2023-05-20T15:19:41.385Z,10.77
2023-05-20T15:22:09.787Z,9.05
2023-05-20T15:24:38.086Z,6.82
2023-05-20T15:27:06.902Z,8.32
2023-05-20T15:29:35.171Z,10.00
2023-05-20T15:32:05.336Z,10.07
2023-05-20T15:34:33.614Z,8.95
2023-05-20T15:37:01.929Z,6.80
2023-05-20T15:39:30.262Z,9.13
2023-05-20T15:41:59.577Z,9.65
2023-05-20T15:44:28.811Z,6.15
2023-05-20T15:46:57.218Z,13.63
2023-05-20T15:49:26.890Z,7.88
2023-05-20T15:52:03.040Z,11.50
2023-05-20T15:54:33.193Z,8.25
2023-05-20T15:57:02.583Z,8.10
2023-05-20T15:59:31.039Z,9.65
2023-05-20T16:02:00.036Z,7.07
2023-05-20T16:04:29.849Z,7.05
2023-05-20T16:06:58.497Z,7.90
2023-05-20T16:09:26.731Z,7.03
2023-05-20T16:11:56.105Z,8.02
2023-05-20T16:14:24.338Z,8.02
2023-05-20T16:16:52.676Z,7.35
2023-05-20T16:19:21.045Z,8.65
2023-05-20T16:21:50.860Z,5.53
2023-05-20T16:24:19.115Z,6.47
2023-05-20T16:26:47.328Z,5.47
2023-05-20T16:29:16.648Z,5.55
2023-05-20T16:31:46.845Z,5.25
2023-05-20T16:34:16.855Z,5.13
2023-05-20T16:36:46.387Z,5.72
2023-05-20T16:39:16.564Z,4.95
2023-05-20T16:41:45.087Z,6.30
2023-05-20T16:44:13.343Z,5.43
2023-05-20T16:46:47.695Z,7.15
2023-05-20T16:49:16.681Z,6.75
2023-05-20T16:51:45.021Z,7.07
2023-05-20T16:54:13.333Z,5.20
2023-05-20T16:56:42.927Z,4.85
2023-05-20T16:59:14.687Z,7.75
2023-05-20T17:01:42.992Z,7.38
2023-05-20T17:04:11.642Z,7.38
2023-05-20T17:06:40.023Z,9.18
2023-05-20T17:09:08.853Z,6.40
2023-05-20T17:11:37.209Z,6.82
2023-05-20T17:14:06.830Z,6.78
2023-05-20T17:16:35.747Z,8.68
2023-05-20T17:19:04.076Z,6.70
2023-05-20T17:21:32.392Z,5.22
2023-05-20T17:24:00.744Z,8.32
2023-05-20T17:26:29.071Z,5.97
2023-05-20T17:28:57.307Z,5.60
2023-05-20T17:31:26.948Z,6.95
2023-05-20T17:33:55.249Z,7.70
2023-05-20T17:36:23.750Z,7.05
2023-05-20T17:38:52.566Z,6.70
2023-05-20T17:41:21.804Z,5.82
2023-05-20T17:43:50.070Z,5.53
2023-05-20T17:46:18.383Z,10.68
2023-05-20T17:48:47.953Z,8.82
2023-05-20T17:51:16.940Z,6.47
2023-05-20T17:53:45.755Z,7.28
2023-05-20T17:56:14.576Z,10.38
2023-05-20T17:58:44.983Z,7.63
2023-05-20T18:01:13.341Z,6.05
2023-05-20T18:04:08.625Z,7.30
2023-05-20T18:06:37.874Z,6.22
2023-05-20T18:09:06.584Z,6.03
2023-05-20T18:11:36.014Z,7.65
2023-05-20T18:14:04.931Z,5.93
2023-05-20T18:16:33.362Z,6.53
2023-05-20T18:19:02.864Z,7.13
2023-05-20T18:21:32.645Z,8.43
2023-05-20T18:24:01.002Z,7.60
2023-05-20T18:26:29.210Z,6.93
2023-05-20T18:28:57.862Z,7.90
2023-05-20T18:31:26.411Z,6.82
2023-05-20T18:33:54.769Z,7.40
2023-05-20T18:36:23.064Z,6.13
2023-05-20T18:38:52.624Z,5.90
2023-05-20T18:41:22.208Z,5.88
2023-05-20T18:43:51.945Z,7.13
2023-05-20T18:46:20.238Z,7.38
2023-05-20T18:48:48.481Z,10.25
2023-05-20T18:51:16.719Z,9.88
2023-05-20T18:53:45.026Z,9.80
2023-05-20T18:56:14.774Z,11.30
2023-05-20T18:58:43.484Z,9.80
2023-05-20T19:01:11.734Z,10.93
2023-05-20T19:03:44.188Z,6.80
2023-05-20T19:06:13.830Z,7.55
2023-05-20T19:08:42.115Z,7.18
2023-05-20T19:11:10.533Z,10.10
2023-05-20T19:13:40.181Z,6.85
2023-05-20T19:16:08.902Z,7.40
2023-05-20T19:18:37.154Z,10.38
2023-05-20T19:21:05.658Z,8.00
2023-05-20T19:23:33.934Z,9.98
2023-05-20T19:26:02.238Z,10.50
2023-05-20T19:28:30.503Z,6.90
2023-05-20T19:31:00.155Z,9.60
2023-05-20T19:33:28.476Z,9.07
2023-05-20T19:35:57.749Z,11.50
2023-05-20T19:38:25.977Z,9.63
2023-05-20T19:40:54.202Z,7.65
2023-05-20T19:43:23.415Z,7.50
2023-05-20T19:45:51.708Z,8.95
2023-05-20T19:48:22.454Z,9.23
2023-05-20T19:50:50.761Z,10.90
2023-05-20T19:53:20.934Z,9.57
2023-05-20T19:55:49.335Z,10.68
2023-05-20T19:58:17.907Z,8.85
2023-05-20T20:00:46.167Z,8.10
2023-05-20T20:03:14.441Z,8.65
2023-05-20T20:05:44.201Z,10.85
2023-05-20T20:08:12.488Z,10.20
2023-05-20T20:10:40.808Z,10.45
2023-05-20T20:13:09.567Z,9.23
2023-05-20T20:15:37.951Z,8.95
2023-05-20T20:18:06.502Z,9.02
2023-05-20T20:20:39.807Z,10.00
2023-05-20T20:23:10.680Z,10.02
2023-05-20T20:25:41.213Z,7.65
2023-05-20T20:28:11.270Z,8.65
2023-05-20T20:30:39.464Z,10.10
2023-05-20T20:33:09.604Z,7.38
2023-05-20T20:35:38.539Z,8.95
2023-05-20T20:38:11.806Z,8.43
2023-05-20T20:40:41.642Z,9.93
2023-05-20T20:43:20.530Z,9.27
2023-05-20T20:45:50.758Z,13.32
2023-05-20T20:48:19.139Z,10.80
2023-05-20T20:50:48.237Z,9.98
2023-05-20T20:53:18.028Z,11.52
2023-05-20T20:55:47.118Z,10.05
2023-05-20T20:58:15.861Z,9.40
2023-05-20T21:00:45.791Z,9.00
2023-05-20T21:03:14.085Z,11.52
2023-05-20T21:05:42.305Z,10.85
2023-05-20T21:08:13.269Z,10.07
2023-05-20T21:10:42.963Z,11.02
2023-05-20T21:13:11.221Z,14.63
2023-05-20T21:15:39.446Z,9.77
2023-05-20T21:18:07.647Z,11.35
2023-05-20T21:20:35.835Z,9.40
2023-05-20T21:23:04.140Z,11.35
2023-05-20T21:25:32.411Z,10.75
2023-05-20T21:28:01.966Z,8.45
2023-05-20T21:30:30.397Z,10.68
2023-05-20T21:32:58.681Z,11.18
2023-05-20T21:35:27.009Z,10.65
2023-05-20T21:37:55.178Z,10.93
2023-05-20T21:40:23.503Z,11.10
2023-05-20T21:42:52.170Z,11.15
2023-05-20T21:45:21.829Z,8.38
2023-05-20T21:47:50.187Z,9.68
2023-05-20T21:50:18.399Z,11.77
2023-05-20T21:52:46.677Z,11.25
2023-05-20T21:55:15.023Z,11.20
2023-05-20T21:57:43.373Z,8.43
2023-05-20T22:00:15.196Z,11.07
2023-05-20T22:02:44.999Z,10.13
2023-05-20T22:05:13.472Z,13.13
2023-05-20T22:07:43.329Z,9.85
2023-05-20T22:10:13.671Z,11.30
2023-05-20T22:12:43.239Z,13.07
2023-05-20T22:15:12.627Z,10.98
2023-05-20T22:17:41.437Z,10.60
2023-05-20T22:20:13.482Z,14.38
2023-05-20T22:22:41.817Z,9.90
2023-05-20T22:25:11.226Z,8.98
2023-05-20T22:27:42.873Z,9.50
2023-05-20T22:30:12.580Z,10.23
2023-05-20T22:32:41.396Z,10.82
2023-05-20T22:35:13.081Z,11.43
2023-05-20T22:37:41.796Z,14.32
2023-05-20T22:40:11.746Z,13.45
2023-05-20T22:42:40.066Z,10.68
2023-05-20T22:45:10.101Z,10.32
2023-05-20T22:47:38.411Z,12.27
2023-05-20T22:50:08.793Z,14.13
2023-05-20T22:52:39.224Z,11.68
2023-05-20T22:55:08.987Z,12.80
2023-05-20T22:57:37.643Z,10.57
2023-05-20T23:00:08.182Z,12.18
2023-05-20T23:02:36.543Z,12.13
2023-05-20T23:05:08.855Z,9.32
2023-05-20T23:07:38.937Z,10.52
2023-05-20T23:10:08.407Z,9.40
2023-05-20T23:12:36.804Z,11.07
2023-05-20T23:15:05.589Z,11.07
2023-05-20T23:17:33.800Z,11.48
2023-05-20T23:20:09.890Z,10.30
2023-05-20T23:22:39.710Z,10.60
2023-05-20T23:25:09.328Z,10.88
2023-05-20T23:27:37.560Z,13.02
2023-05-20T23:30:08.726Z,9.38
2023-05-20T23:32:37.217Z,11.60
2023-05-20T23:35:06.745Z,12.73
2023-05-20T23:37:35.507Z,11.40
2023-05-20T23:40:06.559Z,10.20
2023-05-20T23:42:34.842Z,12.57
2023-05-20T23:45:04.638Z,12.23
2023-05-20T23:47:34.277Z,10.75
2023-05-20T23:50:02.525Z,9.38
2023-05-20T23:52:31.007Z,10.18
2023-05-20T23:55:00.204Z,10.90
2023-05-20T23:57:29.934Z,12.40
2023-05-20T23:59:58.157Z,10.52
